createdAt,value
2022-10-17T00:07:50.396Z,15.52
2022-10-17T00:12:52.891Z,15.52
2022-10-17T00:17:55.506Z,15.51
2022-10-17T00:22:58.205Z,15.5
2022-10-17T00:28:01.199Z,15.46
2022-10-17T00:33:03.973Z,15.48
2022-10-17T00:38:06.894Z,15.41
2022-10-17T00:43:09.583Z,15.45
2022-10-17T00:48:12.189Z,15.54
2022-10-17T00:53:14.965Z,15.63
2022-10-17T00:58:17.867Z,15.72
2022-10-17T01:03:20.782Z,15.79
2022-10-17T01:13:26.348Z,15.65
2022-10-17T01:18:29.055Z,15.52
2022-10-17T01:23:31.761Z,15.47
2022-10-17T01:33:37.181Z,15.4
2022-10-17T01:38:39.651Z,15.39
2022-10-17T01:43:42.235Z,15.27
2022-10-17T01:48:47.942Z,15.25
2022-10-17T01:53:50.578Z,15.18
2022-10-17T02:03:55.733Z,15.06
2022-10-17T02:08:58.358Z,14.98
2022-10-17T02:14:03.963Z,15
2022-10-17T02:19:06.520Z,14.97
2022-10-17T02:24:09.322Z,14.98
2022-10-17T02:29:11.826Z,15.04
2022-10-17T02:34:17.210Z,15.15
2022-10-17T02:39:19.824Z,15.13
2022-10-17T02:44:22.737Z,15.07
2022-10-17T02:49:25.372Z,15.11
2022-10-17T02:54:28.018Z,15.14
2022-10-17T02:59:30.778Z,15.1
2022-10-17T03:09:54.325Z,15.17
2022-10-17T03:14:57.112Z,15.15
2022-10-17T03:20:00.004Z,15.18
2022-10-17T03:25:02.654Z,15.26
2022-10-17T03:40:10.687Z,15.25
2022-10-17T03:50:15.917Z,15.27
2022-10-17T03:55:21.390Z,15.29
2022-10-17T04:00:23.850Z,15.22
2022-10-17T04:05:26.298Z,15.26
2022-10-17T04:10:29.063Z,15.21
2022-10-17T04:15:31.566Z,15.2
2022-10-17T04:26:32.680Z,15.22
2022-10-17T04:31:35.233Z,15.17
2022-10-17T04:36:37.934Z,15.15
2022-10-17T04:41:40.661Z,15.16
2022-10-17T04:46:43.153Z,15.11
2022-10-17T04:51:45.831Z,15.09
2022-10-17T04:56:48.649Z,15.09
2022-10-17T05:01:51.112Z,15.09
2022-10-17T05:06:53.651Z,15.06
2022-10-17T05:11:56.437Z,15.07
2022-10-17T05:16:58.901Z,15.05
2022-10-17T05:22:01.371Z,15.01
2022-10-17T05:27:03.996Z,15.03
2022-10-17T05:32:06.545Z,15.05
2022-10-17T05:37:09.439Z,15.04
2022-10-17T05:42:12.253Z,14.97
2022-10-17T05:47:14.930Z,14.98
2022-10-17T05:52:17.611Z,15
2022-10-17T05:57:20.553Z,15.04
2022-10-17T06:02:23.278Z,15.17
2022-10-17T06:07:25.681Z,15.33
2022-10-17T06:12:28.668Z,15.56
2022-10-17T06:17:31.024Z,15.79
2022-10-17T06:22:33.685Z,15.99
2022-10-17T06:27:36.194Z,16.01
2022-10-17T06:32:38.881Z,16.1
2022-10-17T06:37:41.991Z,16.16
2022-10-17T06:42:44.311Z,16.22
2022-10-17T06:47:47.107Z,16.36
2022-10-17T06:57:52.583Z,16.49
2022-10-17T07:07:57.733Z,16.78
2022-10-17T07:13:00.517Z,17.05
2022-10-17T07:18:05.841Z,17.23
2022-10-17T07:23:08.583Z,17.38
2022-10-17T07:28:11.207Z,17.53
2022-10-17T07:33:13.767Z,17.64
2022-10-17T07:38:16.627Z,18.04
2022-10-17T07:43:19.368Z,18.17
2022-10-17T07:48:24.698Z,18.33
2022-10-17T07:53:27.552Z,18.59
2022-10-17T07:58:30.379Z,18.76
2022-10-17T08:03:33.049Z,18.98
2022-10-17T08:08:35.619Z,19.21
2022-10-17T08:13:38.475Z,19.68
2022-10-17T08:18:41.009Z,19.9
2022-10-17T08:23:43.741Z,20.22
2022-10-17T08:33:49.467Z,20.34
2022-10-17T08:38:53.064Z,20.68
2022-10-17T08:43:54.819Z,20.98
2022-10-17T08:48:57.396Z,21.09
2022-10-17T08:54:00.212Z,21.3
2022-10-17T08:59:02.900Z,21.52
2022-10-17T09:04:05.723Z,21.8
2022-10-17T09:09:08.522Z,21.96
2022-10-17T09:14:10.954Z,22.08
2022-10-17T09:19:13.684Z,22.33
2022-10-17T09:24:16.290Z,22.74
2022-10-17T09:29:19.032Z,22.97
2022-10-17T09:34:24.030Z,23.19
2022-10-17T09:39:24.606Z,23.38
2022-10-17T09:44:27.153Z,23.32
2022-10-17T09:49:29.713Z,23.17
2022-10-17T09:54:32.539Z,23.3
2022-10-17T09:59:35.045Z,23.57
2022-10-17T10:04:46.970Z,23.93
2022-10-17T10:09:40.740Z,24.3
2022-10-17T10:14:47.116Z,24.42
2022-10-17T10:19:46.282Z,24.28
2022-10-17T10:24:49.053Z,24.44
2022-10-17T10:35:50.368Z,25.08
2022-10-17T10:50:59.109Z,25.44
2022-10-17T10:56:01.807Z,25.61
2022-10-17T11:01:04.478Z,25.73
2022-10-17T11:06:07.146Z,25.85
2022-10-17T11:11:09.944Z,26.15
2022-10-17T11:16:13.069Z,26.07
2022-10-17T11:21:15.822Z,26.38
2022-10-17T11:26:18.795Z,26.05
2022-10-17T11:31:21.733Z,26.2
2022-10-17T11:36:24.585Z,26.26
2022-10-17T11:41:27.137Z,26.3
2022-10-17T11:46:29.884Z,26.4
2022-10-17T11:56:37.044Z,26.02
2022-10-17T12:01:38.459Z,26.7
2022-10-17T12:06:41.239Z,26.73
2022-10-17T12:11:43.901Z,26.78
2022-10-17T12:16:46.670Z,26.7
2022-10-17T12:21:49.438Z,26.86
2022-10-17T12:26:55.147Z,26.71
2022-10-17T12:31:54.668Z,26.52
2022-10-17T12:36:57.709Z,26.6
2022-10-17T12:42:00.735Z,26.42
2022-10-17T12:57:08.628Z,26.37
2022-10-17T13:02:11.141Z,26.16
2022-10-17T13:07:13.727Z,25.92
2022-10-17T13:12:16.349Z,25.84
2022-10-17T13:17:19.142Z,26.03
2022-10-17T13:22:22.486Z,25.93
2022-10-17T13:27:25.186Z,25.93
2022-10-17T13:38:26.180Z,26.07
2022-10-17T13:43:28.945Z,25.9
2022-10-17T13:48:31.598Z,25.93
2022-10-17T13:53:34.229Z,25.75
2022-10-17T13:58:37.243Z,25.73
2022-10-17T14:08:42.594Z,25.79
2022-10-17T14:13:48.284Z,25.79
2022-10-17T14:18:50.929Z,25.76
2022-10-17T14:28:59.079Z,25.61
2022-10-17T14:34:01.635Z,25.49
2022-10-17T14:39:04.229Z,25.43
2022-10-17T14:44:06.910Z,25.12
2022-10-17T14:49:09.563Z,24.86
2022-10-17T14:54:12.099Z,24.61
2022-10-17T14:59:21.640Z,24.37
2022-10-17T15:04:17.390Z,24.36
2022-10-17T15:09:23.139Z,24.32
2022-10-17T15:14:25.876Z,24.31
2022-10-17T15:19:28.264Z,24.17
2022-10-17T15:24:33.550Z,24.08
2022-10-17T15:29:36.356Z,24.04
2022-10-17T15:39:41.793Z,23.71
2022-10-17T15:44:51.845Z,23.61
2022-10-17T15:49:55.118Z,23.47
2022-10-17T15:54:58.542Z,23.35
2022-10-17T16:00:00.360Z,23.2
2022-10-17T16:05:02.786Z,23.08
2022-10-17T16:10:05.384Z,22.97
2022-10-17T16:15:08.029Z,22.83
2022-10-17T16:20:10.883Z,22.62
2022-10-17T16:25:13.235Z,22.56
2022-10-17T16:30:16.000Z,22.51
2022-10-17T16:35:18.591Z,22.38
2022-10-17T16:40:21.162Z,22.32
2022-10-17T16:45:23.807Z,22.19
2022-10-17T16:50:26.291Z,22.1
2022-10-17T17:00:31.781Z,21.8
2022-10-17T17:05:34.390Z,21.68
2022-10-17T17:10:37.132Z,21.68
2022-10-17T17:15:40.301Z,21.63
2022-10-17T17:20:43.018Z,21.57
2022-10-17T17:25:46.233Z,21.4
2022-10-17T17:30:49.424Z,21.19
2022-10-17T17:35:51.926Z,21.09
2022-10-17T17:45:57.709Z,20.94
2022-10-17T17:51:00.595Z,20.87
2022-10-17T17:56:03.122Z,20.73
2022-10-17T18:01:05.801Z,20.64
2022-10-17T18:06:08.532Z,20.53
2022-10-17T18:11:14.967Z,20.37
2022-10-17T18:16:15.638Z,20.34
2022-10-17T18:21:18.220Z,20.24
2022-10-17T18:26:21.480Z,20.17
2022-10-17T18:36:54.477Z,19.97
2022-10-17T18:41:56.970Z,19.8
2022-10-17T18:47:01.357Z,19.71
2022-10-17T18:52:02.813Z,19.58
2022-10-17T18:57:05.544Z,19.5
2022-10-17T19:02:08.283Z,19.52
2022-10-17T19:07:11.043Z,19.53
2022-10-17T19:12:13.802Z,19.49
2022-10-17T19:17:16.800Z,19.5
2022-10-17T19:22:19.798Z,19.49
2022-10-17T19:27:22.479Z,19.42
2022-10-17T19:32:25.187Z,19.31
2022-10-17T19:37:27.935Z,19.14
2022-10-17T19:54:26.876Z,19.16
2022-10-17T19:59:29.801Z,19
2022-10-17T20:04:32.367Z,18.8
2022-10-17T20:09:37.700Z,18.68
2022-10-17T20:14:41.189Z,18.68
2022-10-17T20:19:42.835Z,18.52
2022-10-17T20:24:45.456Z,18.45
2022-10-17T20:29:48.083Z,18.47
2022-10-17T20:34:50.730Z,18.52
2022-10-17T20:40:10.832Z,18.43
2022-10-17T20:44:58.757Z,18.31
2022-10-17T20:50:01.446Z,18.25
2022-10-17T20:55:04.060Z,18.2
2022-10-17T21:00:06.707Z,18.16
2022-10-17T21:15:14.901Z,17.91
2022-10-17T21:20:17.456Z,17.87
2022-10-17T21:30:25.621Z,17.76
2022-10-17T21:35:28.275Z,17.69
2022-10-17T21:40:30.890Z,17.64
2022-10-17T21:45:33.431Z,17.6
2022-10-17T21:50:36.205Z,17.54
2022-10-17T21:55:38.891Z,17.57
2022-10-17T22:00:41.488Z,17.59
2022-10-17T22:05:44.324Z,17.63
2022-10-17T22:10:47.162Z,17.69
2022-10-17T22:15:50.310Z,17.66
2022-10-17T22:20:52.896Z,17.67
2022-10-17T22:25:55.459Z,17.66
2022-10-17T22:30:58.424Z,17.64
2022-10-17T22:36:01.081Z,17.67
2022-10-17T22:41:03.729Z,17.72
2022-10-17T22:46:06.589Z,17.75
2022-10-17T22:51:09.017Z,17.77
2022-10-17T23:02:09.912Z,17.95
2022-10-17T23:07:12.399Z,17.88
2022-10-17T23:12:14.954Z,17.82
2022-10-17T23:17:17.509Z,17.79
2022-10-17T23:22:20.254Z,17.87
2022-10-17T23:32:25.702Z,17.82
2022-10-17T23:37:28.435Z,17.89
2022-10-17T23:42:30.933Z,17.87
2022-10-17T23:47:33.810Z,17.93
2022-10-17T23:52:36.375Z,17.94
2022-10-17T23:57:38.910Z,17.86
